»·PEaware :: AMMO16 KEND-KEND

AMMO16 :: KEND-KEND

FLIGHT INFORMATION

Flight Status: Arrived
Operator: Unknown
More flights by this operator :: More flights under this callsign
Pilot: Russell E. (22206)
Aircraft: BEECH AIRCRAFT T-6A TEXAN
(TEX2)
More flights by this aircraft type
Origin: KEND Vance AFB
United States
Destination: KEND Vance AFB
United States
More flights between these airports :: More routes between these airports
Route: +NL END1
File this flight plan on PilotEdge
Remarks:
Altitude:
(Current/Filed)
0ft
Speed:
(Current/Filed)
0kts
Departed: 31-Aug-20 07:01 AM
Arrived: 31-Aug-20 07:26 AM
Distance/Time
Traveled:
7nm/0:25
Distance/Time
To Go:
Arrived

Flight Plot

Page will automatically refresh every two minutes.

Flight plan parsing failed; only flown route is shown


Map Options




Map Legend


Flown Route
Filed Route
Departure Airport
Arrival Airport
Navaid (VOR, NDB)
Fix

Horizontal Profiles

Position Reports

Time Latitude Longitude Heading Altitude Ground
Speed
31-Aug-20 06:33 36.346963 -97.909998 215 1279ft 0kts
31-Aug-20 06:34 36.346963 -97.909998 215 1279ft 0kts
31-Aug-20 06:35 36.346963 -97.909998 215 1279ft 0kts
31-Aug-20 06:36 36.346942 -97.910060 248 1279ft 0kts
31-Aug-20 06:37 36.346942 -97.910060 248 1279ft 0kts
31-Aug-20 06:38 36.346942 -97.910060 248 1279ft 0kts
31-Aug-20 06:47 36.346911 -97.910059 215 1279ft 3kts
31-Aug-20 06:48 36.346864 -97.910109 225 1279ft 0kts
31-Aug-20 06:49 36.346864 -97.910109 225 1279ft 0kts
31-Aug-20 06:50 36.346864 -97.910109 225 1279ft 0kts
31-Aug-20 06:51 36.346864 -97.910109 225 1279ft 0kts
31-Aug-20 06:52 36.346864 -97.910109 225 1279ft 0kts
31-Aug-20 06:53 36.346864 -97.910109 225 1279ft 0kts
31-Aug-20 06:54 36.346864 -97.910109 225 1279ft 0kts
31-Aug-20 06:55 36.346864 -97.910109 225 1279ft 0kts
31-Aug-20 06:56 36.346864 -97.910109 225 1279ft 0kts
31-Aug-20 06:58 36.346864 -97.910109 225 1279ft 0kts
31-Aug-20 06:59 36.346864 -97.910109 225 1279ft 0kts
31-Aug-20 07:00 36.338267 -97.911024 179 1365ft 122kts
31-Aug-20 07:01 36.287894 -97.907458 175 2821ft 214kts
31-Aug-20 07:02 36.223917 -97.894454 162 4514ft 236kts
31-Aug-20 07:03 36.247341 -97.853848 343 5049ft 249kts
31-Aug-20 07:04 36.316780 -97.874617 344 4974ft 231kts
31-Aug-20 07:05 36.382911 -97.897069 339 5158ft 245kts
31-Aug-20 07:06 36.452840 -97.907454 359 6860ft 237kts
31-Aug-20 07:07 36.522030 -97.903836 4 8680ft 245kts
31-Aug-20 07:08 36.590725 -97.895406 5 10375ft 258kts
31-Aug-20 07:09 36.667206 -97.888805 2 10280ft 262kts
31-Aug-20 07:10 36.739951 -97.902022 313 10546ft 270kts
31-Aug-20 07:11 36.740867 -97.995868 218 10495ft 274kts
31-Aug-20 07:12 36.673049 -97.983534 109 10299ft 283kts
31-Aug-20 07:13 36.716124 -97.977589 276 11693ft 266kts
31-Aug-20 07:14 36.665129 -98.052978 222 10579ft 286kts
31-Aug-20 07:15 36.613542 -98.119964 195 10026ft 247kts
31-Aug-20 07:16 36.553130 -98.095772 125 9757ft 241kts
31-Aug-20 07:17 36.548249 -98.012810 93 9381ft 243kts
31-Aug-20 07:18 36.543958 -97.933412 93 7050ft 232kts
31-Aug-20 07:19 36.520711 -97.865007 123 5578ft 207kts
31-Aug-20 07:20 36.473390 -97.881631 215 4391ft 184kts
31-Aug-20 07:21 36.416541 -97.908182 184 3684ft 238kts
31-Aug-20 07:22 36.358893 -97.910616 183 2243ft 188kts
31-Aug-20 07:23 36.366501 -97.896438 355 1867ft 174kts
31-Aug-20 07:24 36.354567 -97.910951 179 1432ft 127kts
31-Aug-20 07:25 36.336076 -97.911021 177 1289ft 32kts
31-Aug-20 07:26 36.334117 -97.909642 51 1292ft 8kts
31-Aug-20 07:30 36.346746 -97.910323 267 1279ft 0kts
31-Aug-20 07:31 36.346746 -97.910323 267 1279ft 0kts
31-Aug-20 07:32 36.346746 -97.910323 267 1279ft 0kts
31-Aug-20 07:33 36.346746 -97.910323 267 1279ft 0kts
31-Aug-20 07:34 36.346746 -97.910323 267 1279ft 0kts
31-Aug-20 07:35 36.346752 -97.910567 269 1279ft 9kts
31-Aug-20 07:36 36.319323 -97.908142 170 1698ft 188kts
31-Aug-20 07:37 36.271121 -97.897387 172 5027ft 181kts
31-Aug-20 07:38 36.218227 -97.867926 113 4999ft 249kts
31-Aug-20 07:39 36.253628 -97.807780 353 5001ft 248kts

Navigation Log

Ident Type
Flight plan parsing failed, navigation log unavailable